createdAt,value
2023-08-25T00:00:28.150Z,25.3
2023-08-25T00:02:59.793Z,25.2
2023-08-25T00:05:30.809Z,25.1
2023-08-25T00:08:02.231Z,25
2023-08-25T00:10:33.584Z,25.1
2023-08-25T00:13:04.959Z,25.1
2023-08-25T00:15:36.107Z,25.1
2023-08-25T00:18:06.936Z,25.1
2023-08-25T00:20:37.848Z,25.1
2023-08-25T00:23:08.879Z,25.1
2023-08-25T00:25:39.592Z,25.1
2023-08-25T00:28:11.051Z,25
2023-08-25T00:30:42.701Z,25
2023-08-25T00:33:14.174Z,25
2023-08-25T00:35:45.932Z,25
2023-08-25T00:38:17.006Z,25
2023-08-25T00:40:48.065Z,25
2023-08-25T00:43:19.792Z,24.9
2023-08-25T00:45:51.301Z,24.9
2023-08-25T00:48:22.474Z,24.9
2023-08-25T00:50:53.408Z,24.9
2023-08-25T00:53:23.897Z,24.9
2023-08-25T00:55:54.737Z,24.8
2023-08-25T00:58:25.374Z,24.8
2023-08-25T01:00:56.288Z,24.9
2023-08-25T01:03:26.938Z,24.8
2023-08-25T01:05:57.729Z,24.8
2023-08-25T01:08:29.254Z,24.8
2023-08-25T01:11:00.751Z,24.8
2023-08-25T01:13:31.435Z,24.7
2023-08-25T01:16:02.305Z,24.7
2023-08-25T01:18:33.654Z,24.7
2023-08-25T01:21:04.921Z,24.6
2023-08-25T01:23:36.536Z,24.6
2023-08-25T01:26:07.800Z,24.6
2023-08-25T01:28:38.816Z,24.6
2023-08-25T01:33:47.104Z,24.5
2023-08-25T01:36:18.021Z,24.4
2023-08-25T01:38:49.320Z,24.4
2023-08-25T01:41:21.303Z,24.4
2023-08-25T01:43:53.141Z,24.4
2023-08-25T01:46:24.606Z,24.4
2023-08-25T01:48:56.027Z,24.4
2023-08-25T01:51:26.793Z,24.3
2023-08-25T01:53:58.088Z,24.3
2023-08-25T01:56:29.688Z,24.3
2023-08-25T01:59:00.565Z,24.2
2023-08-25T02:01:31.374Z,24.2
2023-08-25T02:04:02.628Z,24.1
2023-08-25T02:06:34.128Z,24.1
2023-08-25T02:09:05.058Z,24.1
2023-08-25T02:11:35.765Z,24.1
2023-08-25T02:14:07.062Z,24.1
2023-08-25T02:16:38.343Z,24
2023-08-25T02:19:09.805Z,24
2023-08-25T02:21:41.415Z,24
2023-08-25T02:24:12.742Z,24
2023-08-25T02:26:44.119Z,23.9
2023-08-25T02:29:15.515Z,23.9
2023-08-25T02:31:46.961Z,23.9
2023-08-25T02:34:20.206Z,23.9
2023-08-25T02:36:49.843Z,23.9
2023-08-25T02:39:21.831Z,23.9
2023-08-25T02:41:53.430Z,23.8
2023-08-25T02:44:24.513Z,23.8
2023-08-25T02:46:56.226Z,23.8
2023-08-25T02:49:27.787Z,23.8
2023-08-25T02:51:59.416Z,23.8
2023-08-25T02:54:30.572Z,23.8
2023-08-25T02:57:01.812Z,23.7
2023-08-25T02:59:31.061Z,23.8
2023-08-25T03:02:02.253Z,23.8
2023-08-25T03:04:34.405Z,23.8
2023-08-25T03:07:05.598Z,23.8
2023-08-25T03:09:36.401Z,23.8
2023-08-25T03:12:07.823Z,23.7
2023-08-25T03:14:39.100Z,23.7
2023-08-25T03:17:10.096Z,23.7
2023-08-25T03:19:41.631Z,23.7
2023-08-25T03:22:13.284Z,23.6
2023-08-25T03:24:45.069Z,23.6
2023-08-25T03:27:16.456Z,23.6
2023-08-25T03:29:47.850Z,23.5
2023-08-25T03:32:19.354Z,23.5
2023-08-25T03:34:50.619Z,23.5
2023-08-25T03:37:21.928Z,23.5
2023-08-25T03:39:53.605Z,23.5
2023-08-25T03:42:24.535Z,23.4
2023-08-25T03:44:56.151Z,23.4
2023-08-25T03:47:27.662Z,23.4
2023-08-25T03:49:59.251Z,23.4
2023-08-25T03:52:30.286Z,23.4
2023-08-25T03:55:02.126Z,23.4
2023-08-25T03:57:33.085Z,23.4
2023-08-25T04:00:04.266Z,23.4
2023-08-25T04:02:35.885Z,23.4
2023-08-25T04:05:07.110Z,23.3
2023-08-25T04:07:37.829Z,23.4
2023-08-25T04:10:09.298Z,23.4
2023-08-25T04:12:40.338Z,23.3
2023-08-25T04:15:11.842Z,23.4
2023-08-25T04:17:42.825Z,23.4
2023-08-25T04:20:13.974Z,23.4
2023-08-25T04:22:44.537Z,23.4
2023-08-25T04:25:15.411Z,23.4
2023-08-25T04:27:46.349Z,23.4
2023-08-25T04:30:17.232Z,23.5
2023-08-25T04:32:48.785Z,23.5
2023-08-25T04:35:19.490Z,23.6
2023-08-25T04:37:50.261Z,23.6
2023-08-25T04:40:21.895Z,23.6
2023-08-25T04:42:53.234Z,23.7
2023-08-25T04:45:23.904Z,23.7
2023-08-25T04:47:55.588Z,23.8
2023-08-25T04:50:26.515Z,23.9
2023-08-25T04:52:57.989Z,23.9
2023-08-25T04:55:29.582Z,24
2023-08-25T04:58:01.108Z,24
2023-08-25T05:00:32.589Z,24.1
2023-08-25T05:03:04.267Z,24.2
2023-08-25T05:05:35.400Z,24.2
2023-08-25T05:08:07.019Z,24.2
2023-08-25T05:10:38.316Z,24.3
2023-08-25T05:13:09.689Z,24.4
2023-08-25T05:15:40.405Z,24.5
2023-08-25T05:18:10.379Z,24.5
2023-08-25T05:20:40.964Z,24.6
2023-08-25T05:23:12.543Z,24.7
2023-08-25T05:25:43.684Z,24.8
2023-08-25T05:28:14.938Z,24.9
2023-08-25T05:30:50.870Z,25
2023-08-25T05:33:27.665Z,25.1
2023-08-25T05:35:58.019Z,25.3
2023-08-25T05:41:08.091Z,25.4
2023-08-25T05:43:39.181Z,25.5
2023-08-25T05:46:10.272Z,25.6
2023-08-25T05:48:40.837Z,25.6
2023-08-25T05:51:12.013Z,25.8
2023-08-25T05:53:43.618Z,25.9
2023-08-25T05:56:14.778Z,26
2023-08-25T05:58:50.284Z,26
2023-08-25T06:01:20.766Z,26.1
2023-08-25T06:03:51.785Z,26.2
2023-08-25T06:06:23.722Z,26.3
2023-08-25T06:08:54.556Z,26.3
2023-08-25T06:11:25.650Z,26.2
2023-08-25T06:13:57.002Z,26.3
2023-08-25T06:16:28.198Z,26.5
2023-08-25T06:18:59.625Z,26.4
2023-08-25T06:21:31.035Z,26.5
2023-08-25T06:24:02.450Z,26.7
2023-08-25T06:26:34.228Z,26.8
2023-08-25T06:29:05.711Z,26.8
2023-08-25T06:31:37.111Z,27
2023-08-25T06:34:08.195Z,27.2
2023-08-25T06:36:39.493Z,27.3
2023-08-25T06:39:10.270Z,27.4
2023-08-25T06:41:39.596Z,27.5
2023-08-25T06:44:10.801Z,27.5
2023-08-25T06:46:41.601Z,27.8
2023-08-25T06:49:12.695Z,28
2023-08-25T06:51:44.030Z,28.1
2023-08-25T06:54:14.643Z,28.1
2023-08-25T06:56:44.984Z,28.3
2023-08-25T06:59:16.220Z,28.4
2023-08-25T07:01:47.539Z,28.6
2023-08-25T07:04:18.606Z,28.7
2023-08-25T07:06:49.699Z,28.8
2023-08-25T07:09:20.209Z,28.9
2023-08-25T07:11:50.965Z,29.1
2023-08-25T07:14:21.447Z,29.2
2023-08-25T07:16:52.568Z,29.4
2023-08-25T07:19:23.739Z,29.4
2023-08-25T07:21:54.245Z,29.5
2023-08-25T07:24:25.511Z,29.7
2023-08-25T07:26:56.777Z,29.7
2023-08-25T07:29:27.816Z,29.9
2023-08-25T07:31:58.949Z,30
2023-08-25T07:34:30.092Z,30.2
2023-08-25T07:37:01.379Z,30.2
2023-08-25T07:39:32.194Z,30.4
2023-08-25T07:42:03.803Z,30.5
2023-08-25T07:44:35.043Z,30.7
2023-08-25T07:47:06.016Z,30.8
2023-08-25T07:49:36.595Z,30.8
2023-08-25T07:52:07.764Z,30.9
2023-08-25T07:54:39.033Z,31
2023-08-25T07:57:10.784Z,31.1
2023-08-25T07:59:42.078Z,31.1
2023-08-25T08:02:13.778Z,31.2
2023-08-25T08:04:43.393Z,31.2
2023-08-25T08:07:14.591Z,31.2
2023-08-25T08:09:45.656Z,31.3
2023-08-25T08:12:16.950Z,31.3
2023-08-25T08:14:48.195Z,31.5
2023-08-25T08:17:19.808Z,31.5
2023-08-25T08:19:51.190Z,31.5
2023-08-25T08:22:21.763Z,31.6
2023-08-25T08:24:52.989Z,31.8
2023-08-25T08:27:24.214Z,31.8
2023-08-25T08:29:53.166Z,31.8
2023-08-25T08:32:24.129Z,31.9
2023-08-25T08:34:55.380Z,32
2023-08-25T08:37:26.379Z,32
2023-08-25T08:39:57.330Z,32.1
2023-08-25T08:42:28.308Z,32.3
2023-08-25T08:44:59.411Z,32.3
2023-08-25T08:47:29.907Z,32.3
2023-08-25T08:50:01.012Z,32.3
2023-08-25T08:52:32.247Z,32.4
2023-08-25T08:55:03.265Z,32.6
2023-08-25T08:57:34.257Z,32.6
2023-08-25T09:00:05.383Z,32.8
2023-08-25T09:02:36.587Z,32.8
2023-08-25T09:05:07.620Z,32.8
2023-08-25T09:07:38.057Z,32.8
2023-08-25T09:10:08.331Z,33
2023-08-25T09:12:38.906Z,32.9
2023-08-25T09:15:09.958Z,33
2023-08-25T09:17:41.174Z,33.1
2023-08-25T09:20:12.268Z,33.3
2023-08-25T09:22:43.360Z,33.3
2023-08-25T09:25:14.775Z,33.4
2023-08-25T09:27:46.239Z,33.4
2023-08-25T09:30:17.306Z,33.5
2023-08-25T09:32:50.143Z,33.5
2023-08-25T09:35:19.324Z,33.6
2023-08-25T09:37:51.101Z,33.7
2023-08-25T09:40:22.245Z,33.8
2023-08-25T09:42:53.236Z,33.8
2023-08-25T09:45:23.692Z,33.8
2023-08-25T09:47:54.557Z,33.8
2023-08-25T09:50:25.320Z,33.8
2023-08-25T09:52:56.170Z,33.7
2023-08-25T09:55:27.283Z,33.8
2023-08-25T09:57:58.173Z,33.9
2023-08-25T10:00:29.720Z,34
2023-08-25T10:03:00.538Z,33.9
2023-08-25T10:05:31.062Z,33.8
2023-08-25T10:08:00.146Z,33.8
2023-08-25T10:10:31.239Z,33.8
2023-08-25T10:13:01.737Z,33.7
2023-08-25T10:15:32.218Z,33.8
2023-08-25T10:18:03.244Z,33.8
2023-08-25T10:20:37.201Z,33.7
2023-08-25T10:23:07.530Z,33.7
2023-08-25T10:25:38.289Z,33.8
2023-08-25T10:28:09.447Z,33.8
2023-08-25T10:30:45.435Z,33.9
2023-08-25T10:33:16.600Z,34
2023-08-25T10:35:56.003Z,33.9
2023-08-25T10:38:26.971Z,34
2023-08-25T10:40:57.649Z,34.1
2023-08-25T10:43:29.672Z,34.2
2023-08-25T10:45:59.821Z,34.1
2023-08-25T10:48:36.725Z,34.2
2023-08-25T10:51:03.976Z,34.2
2023-08-25T10:53:34.894Z,34.3
2023-08-25T10:56:05.886Z,34.2
2023-08-25T10:58:36.903Z,34.2
2023-08-25T11:01:12.867Z,34.3
2023-08-25T11:03:43.986Z,34.4
2023-08-25T11:06:14.533Z,34.5
2023-08-25T11:08:46.073Z,34.6
2023-08-25T11:11:17.237Z,34.4
2023-08-25T11:13:48.145Z,34.4
2023-08-25T11:16:19.205Z,34.5
2023-08-25T11:18:50.393Z,34.6
2023-08-25T11:21:21.503Z,34.4
2023-08-25T11:23:53.433Z,34.5
2023-08-25T11:26:24.481Z,34.4
2023-08-25T11:28:58.931Z,34.7
2023-08-25T11:31:29.932Z,34.8
2023-08-25T11:34:01.090Z,34.8
2023-08-25T11:36:32.337Z,34.8
2023-08-25T11:39:03.414Z,34.8
2023-08-25T11:41:34.344Z,34.8
2023-08-25T11:44:05.443Z,34.8
2023-08-25T11:46:36.701Z,34.9
2023-08-25T11:49:07.795Z,35
2023-08-25T11:51:38.395Z,35
2023-08-25T11:54:09.121Z,35.1
2023-08-25T11:56:40.057Z,35.1
2023-08-25T11:59:10.967Z,35
2023-08-25T12:01:41.866Z,35
2023-08-25T12:04:13.106Z,35
2023-08-25T12:06:47.246Z,35
2023-08-25T12:09:17.905Z,35
2023-08-25T12:11:48.034Z,35.1
2023-08-25T12:14:18.960Z,35.1
2023-08-25T12:16:49.933Z,35
2023-08-25T12:19:21.025Z,35
2023-08-25T12:21:51.943Z,35
2023-08-25T12:24:23.074Z,35
2023-08-25T12:26:54.307Z,35.1
2023-08-25T12:29:25.871Z,35.1
2023-08-25T12:31:56.979Z,35.1
2023-08-25T12:34:28.292Z,35.2
2023-08-25T12:36:59.262Z,35.2
2023-08-25T12:39:30.592Z,35.3
2023-08-25T12:42:02.109Z,35.4
2023-08-25T12:44:32.584Z,35.5
2023-08-25T12:47:03.742Z,35.5
2023-08-25T12:49:34.981Z,35.6
2023-08-25T12:52:05.979Z,35.6
2023-08-25T12:54:37.023Z,35.7
2023-08-25T12:57:08.045Z,35.8
2023-08-25T12:59:39.417Z,35.8
2023-08-25T13:02:10.316Z,35.9
2023-08-25T13:04:41.276Z,35.9
2023-08-25T13:07:12.496Z,35.8
2023-08-25T13:09:43.891Z,36
2023-08-25T13:12:14.512Z,36.1
2023-08-25T13:14:45.367Z,36.1
2023-08-25T13:17:16.002Z,36.2
2023-08-25T13:19:47.095Z,36.2
2023-08-25T13:22:18.088Z,36.2
2023-08-25T13:24:49.144Z,36.2
2023-08-25T13:27:20.016Z,36.1
2023-08-25T13:29:53.533Z,36
2023-08-25T13:32:34.084Z,35.8
2023-08-25T13:35:06.250Z,35.9
2023-08-25T13:37:37.123Z,35.7
2023-08-25T13:40:08.150Z,35.6
2023-08-25T13:42:39.261Z,35.4
2023-08-25T13:45:10.107Z,35.3
2023-08-25T13:47:41.048Z,35.3
2023-08-25T13:50:12.414Z,35.2
2023-08-25T13:52:43.605Z,35.1
2023-08-25T13:55:14.401Z,34.9
2023-08-25T13:57:45.326Z,34.6
2023-08-25T14:00:16.405Z,34.7
2023-08-25T14:02:47.999Z,34.5
2023-08-25T14:05:19.472Z,34.4
2023-08-25T14:07:50.255Z,34.4
2023-08-25T14:10:21.247Z,34.2
2023-08-25T14:12:52.383Z,34.2
2023-08-25T14:15:23.532Z,34.2
2023-08-25T14:17:54.778Z,34.1
2023-08-25T14:20:25.548Z,34
2023-08-25T14:22:56.696Z,34
2023-08-25T14:25:28.197Z,34.1
2023-08-25T14:27:59.430Z,34.1
2023-08-25T14:30:30.586Z,34
2023-08-25T14:33:02.053Z,34
2023-08-25T14:35:33.109Z,33.9
2023-08-25T14:38:04.371Z,33.9
2023-08-25T14:40:35.388Z,33.9
2023-08-25T14:43:06.695Z,33.8
2023-08-25T14:45:37.795Z,33.7
2023-08-25T14:48:09.052Z,33.7
2023-08-25T14:50:40.273Z,33.7
2023-08-25T14:53:12.005Z,33.6
2023-08-25T14:55:42.430Z,33.4
2023-08-25T14:58:13.576Z,33.5
2023-08-25T15:00:44.823Z,33.4
2023-08-25T15:03:15.788Z,33.4
2023-08-25T15:05:47.083Z,33.4
2023-08-25T15:08:17.983Z,33.4
2023-08-25T15:10:48.784Z,33.3
2023-08-25T15:13:25.378Z,33.4
2023-08-25T15:15:56.402Z,33.3
2023-08-25T15:18:27.568Z,33.3
2023-08-25T15:20:58.662Z,33.3
2023-08-25T15:23:29.717Z,33.2
2023-08-25T15:26:00.850Z,33.2
2023-08-25T15:28:31.149Z,33.2
2023-08-25T15:31:02.319Z,33.2
2023-08-25T15:33:33.303Z,33.2
2023-08-25T15:36:04.324Z,33.2
2023-08-25T15:38:34.838Z,33.2
2023-08-25T15:41:05.392Z,33.1
2023-08-25T15:43:36.469Z,33.2
2023-08-25T15:46:07.163Z,33.2
2023-08-25T15:48:38.306Z,33.2
2023-08-25T15:51:09.586Z,33.2
2023-08-25T15:53:40.410Z,33.1
2023-08-25T15:56:11.367Z,33
2023-08-25T15:58:42.317Z,33.1
2023-08-25T16:01:12.577Z,33
2023-08-25T16:03:43.147Z,33
2023-08-25T16:06:13.984Z,33
2023-08-25T16:08:44.440Z,32.9
2023-08-25T16:11:15.563Z,32.9
2023-08-25T16:13:46.715Z,32.7
2023-08-25T16:16:17.733Z,32.7
2023-08-25T16:18:48.850Z,32.7
2023-08-25T16:21:19.400Z,32.6
2023-08-25T16:23:49.920Z,32.6
2023-08-25T16:26:20.654Z,32.6
2023-08-25T16:28:51.256Z,32.5
2023-08-25T16:31:22.448Z,32.5
2023-08-25T16:33:53.659Z,32.5
2023-08-25T16:36:24.606Z,32.4
2023-08-25T16:38:55.482Z,32.4
2023-08-25T16:41:25.927Z,32.4
2023-08-25T16:43:58.784Z,32.3
2023-08-25T16:46:27.006Z,32.3
2023-08-25T16:48:57.383Z,32.2
2023-08-25T16:51:27.780Z,32.2
2023-08-25T16:53:58.083Z,32.2
2023-08-25T16:56:28.437Z,32.1
2023-08-25T16:58:59.070Z,32.1
2023-08-25T17:01:29.635Z,32
2023-08-25T17:04:00.494Z,32
2023-08-25T17:06:30.987Z,31.9
2023-08-25T17:09:02.077Z,31.9
2023-08-25T17:11:32.624Z,31.8
2023-08-25T17:14:03.139Z,31.8
2023-08-25T17:16:34.433Z,31.8
2023-08-25T17:19:05.295Z,31.8
2023-08-25T17:21:36.561Z,31.7
2023-08-25T17:24:07.024Z,31.7
2023-08-25T17:26:37.485Z,31.7
2023-08-25T17:29:07.764Z,31.6
2023-08-25T17:31:38.340Z,31.6
2023-08-25T17:34:08.898Z,31.6
2023-08-25T17:36:39.920Z,31.6
2023-08-25T17:39:11.212Z,31.5
2023-08-25T17:41:41.470Z,31.5
2023-08-25T17:44:12.637Z,31.4
2023-08-25T17:46:44.195Z,31.4
2023-08-25T17:49:14.775Z,31.3
2023-08-25T17:51:45.965Z,31.2
2023-08-25T17:54:17.183Z,31.2
2023-08-25T17:56:47.935Z,31.2
2023-08-25T17:59:18.608Z,31.2
2023-08-25T18:01:49.578Z,31.1
2023-08-25T18:04:20.655Z,31
2023-08-25T18:06:49.630Z,30.8
2023-08-25T18:09:20.824Z,30.8
2023-08-25T18:11:51.633Z,30.8
2023-08-25T18:14:22.348Z,30.8
2023-08-25T18:16:52.814Z,30.8
2023-08-25T18:19:23.602Z,30.8
2023-08-25T18:21:53.934Z,30.7
2023-08-25T18:24:24.652Z,30.6
2023-08-25T18:26:55.727Z,30.6
2023-08-25T18:29:26.653Z,30.5
2023-08-25T18:31:59.338Z,30.5
2023-08-25T18:34:28.521Z,30.5
2023-08-25T18:36:59.457Z,30.4
2023-08-25T18:39:30.626Z,30.4
2023-08-25T18:42:00.892Z,30.4
2023-08-25T18:44:31.386Z,30.3
2023-08-25T18:47:02.069Z,30.1
2023-08-25T18:49:32.593Z,30
2023-08-25T18:52:03.642Z,30
2023-08-25T18:54:39.598Z,30
2023-08-25T18:57:10.234Z,29.9
2023-08-25T18:59:41.048Z,29.9
2023-08-25T19:02:11.961Z,29.9
2023-08-25T19:04:43.219Z,29.8
2023-08-25T19:07:13.839Z,29.8
2023-08-25T19:09:46.981Z,29.8
2023-08-25T19:12:16.352Z,29.8
2023-08-25T19:14:47.543Z,29.7
2023-08-25T19:17:16.608Z,29.6
2023-08-25T19:19:47.806Z,29.6
2023-08-25T19:22:18.808Z,29.5
2023-08-25T19:24:49.569Z,29.4
2023-08-25T19:27:20.648Z,29.4
2023-08-25T19:29:51.603Z,29.3
2023-08-25T19:32:22.778Z,29.2
2023-08-25T19:34:53.566Z,29.2
2023-08-25T19:37:24.495Z,29.1
2023-08-25T19:39:55.814Z,29
2023-08-25T19:42:26.943Z,28.9
2023-08-25T19:44:59.694Z,28.8
2023-08-25T19:47:30.837Z,28.8
2023-08-25T19:50:01.967Z,28.7
2023-08-25T19:52:32.486Z,28.7
2023-08-25T19:55:03.495Z,28.7
2023-08-25T19:57:34.933Z,28.6
2023-08-25T20:00:05.421Z,28.6
2023-08-25T20:02:36.411Z,28.6
2023-08-25T20:05:07.166Z,28.5
2023-08-25T20:07:37.607Z,28.5
2023-08-25T20:10:08.433Z,28.3
2023-08-25T20:12:39.183Z,28.3
2023-08-25T20:15:10.034Z,28.3
2023-08-25T20:17:41.134Z,28.3
2023-08-25T20:20:11.769Z,28
2023-08-25T20:22:42.644Z,27.8
2023-08-25T20:25:13.653Z,27.7
2023-08-25T20:27:45.093Z,27.7
2023-08-25T20:30:14.149Z,27.7
2023-08-25T20:32:45.122Z,27.4
2023-08-25T20:35:15.621Z,27.3
2023-08-25T20:37:46.200Z,27.1
2023-08-25T20:40:17.154Z,27.2
2023-08-25T20:42:47.576Z,27
2023-08-25T20:45:18.290Z,27
2023-08-25T20:47:49.343Z,26.9
2023-08-25T20:50:20.595Z,26.8
2023-08-25T20:52:51.057Z,26.6
2023-08-25T20:55:22.050Z,26.6
2023-08-25T20:57:53.043Z,26.5
2023-08-25T21:00:24.134Z,26.6
2023-08-25T21:02:55.306Z,26.5
2023-08-25T21:05:26.334Z,26.4
2023-08-25T21:07:57.220Z,26.5
2023-08-25T21:10:27.970Z,26.4
2023-08-25T21:12:59.020Z,26.4
2023-08-25T21:15:29.884Z,26.2
2023-08-25T21:18:01.111Z,26.2
2023-08-25T21:20:32.264Z,26.2
2023-08-25T21:23:03.321Z,26.2
2023-08-25T21:25:34.420Z,26.2
2023-08-25T21:28:04.887Z,26.1
2023-08-25T21:30:35.768Z,26.1
2023-08-25T21:33:06.183Z,26.1
2023-08-25T21:35:37.364Z,26
2023-08-25T21:38:07.838Z,26.1
2023-08-25T21:40:38.159Z,25.9
2023-08-25T21:43:08.976Z,26
2023-08-25T21:45:39.921Z,25.9
2023-08-25T21:48:10.602Z,25.8
2023-08-25T21:50:41.281Z,25.8
2023-08-25T21:53:12.340Z,25.8
2023-08-25T21:55:43.004Z,25.8
2023-08-25T21:58:13.661Z,25.8
2023-08-25T22:00:44.353Z,25.8
2023-08-25T22:03:15.453Z,25.8
2023-08-25T22:05:45.843Z,25.8
2023-08-25T22:08:16.846Z,25.7
2023-08-25T22:10:50.520Z,25.7
2023-08-25T22:13:21.117Z,25.8
2023-08-25T22:15:52.448Z,25.8
2023-08-25T22:18:23.362Z,25.8
2023-08-25T22:20:54.234Z,25.8
2023-08-25T22:23:25.318Z,25.7
2023-08-25T22:25:56.062Z,25.6
2023-08-25T22:28:27.194Z,25.6
2023-08-25T22:30:57.960Z,25.6
2023-08-25T22:36:00.905Z,25.6
2023-08-25T22:38:32.073Z,25.6
2023-08-25T22:41:02.743Z,25.5
2023-08-25T22:43:33.377Z,25.6
2023-08-25T22:46:04.211Z,25.5
2023-08-25T22:48:34.887Z,25.5
2023-08-25T22:51:06.362Z,25.5
2023-08-25T22:53:36.777Z,25.5
2023-08-25T22:56:07.791Z,25.6
2023-08-25T22:58:38.818Z,25.5
2023-08-25T23:01:09.168Z,25.4
2023-08-25T23:03:40.258Z,25.3
2023-08-25T23:06:11.282Z,25.4
2023-08-25T23:08:42.045Z,25.3
2023-08-25T23:11:12.525Z,25.3
2023-08-25T23:13:43.503Z,25.4
2023-08-25T23:16:14.584Z,25.4
2023-08-25T23:18:45.980Z,25.5
2023-08-25T23:21:16.691Z,25.5
2023-08-25T23:23:47.465Z,25.5
2023-08-25T23:26:18.390Z,25.6
2023-08-25T23:28:49.832Z,25.6
2023-08-25T23:31:21.340Z,25.5
2023-08-25T23:33:52.794Z,25.6
2023-08-25T23:36:23.609Z,25.5
2023-08-25T23:38:54.835Z,25.5
2023-08-25T23:41:26.276Z,25.5
2023-08-25T23:43:57.411Z,25.5
2023-08-25T23:46:28.434Z,25.5
2023-08-25T23:48:59.500Z,25.4
2023-08-25T23:51:30.551Z,25.4
2023-08-25T23:54:01.637Z,25.4
2023-08-25T23:56:33.066Z,25.3
2023-08-25T23:59:04.588Z,25.3
